2AK3 weather

Five Finger CG Heliport
Five Finger, Alaska, United States

Public forecast

Using degrees Fahrenheit for public forecast. Weather courtesy of forecast.io.

Closest aviation weather report (METAR) to Five Finger CG Heliport

Closest report is Kake Airport, 20.6 nm (38.2 km) SSW. Retrieved 2019/11/14 20:01 UTC (21 minutes ago):

PAFE 142001Z AUTO 13006KT 10SM SCT008 BKN055 OVC080 09/09 A2948 RMK AO2

Closest aviation forecast (TAF) to Five Finger CG Heliport

Closest forecast is Petersburg James A Johnson Airport, 35.9 nm (66.6 km) SE. Retrieved 2019/11/14 18:45 UTC (2 hours ago):

TAF PAPG 141741Z 1418/1518 11005KT 4SM -SHRA BR BKN025 OVC035 WS020/15040KT TEMPO 1418/1422 11010G20KT 4SM -SHRA BR SCT007 BKN015 OVC025 FM150000 14006G16KT P6SM -SHRA SCT015 OVC025 WS020/20035KT FM150400 12004KT 4SM -SHRA BR OVC025 AMD LTD TO CLD VIS AND WIND 1506/1515